createdAt,value
2017-07-11T00:00:40.820Z,1021.92
2017-07-11T00:01:40.819Z,1021.96
2017-07-11T00:02:40.812Z,1022
2017-07-11T00:03:40.812Z,1021.97
2017-07-11T00:04:40.807Z,1021.95
2017-07-11T00:05:40.809Z,1021.97
2017-07-11T00:06:40.805Z,1021.99
2017-07-11T00:07:40.798Z,1022.02
2017-07-11T00:08:40.799Z,1022
2017-07-11T00:09:40.795Z,1022.02
2017-07-11T00:10:40.792Z,1022.09
2017-07-11T00:11:40.787Z,1022.1
2017-07-11T00:12:40.786Z,1022.13
2017-07-11T00:13:40.781Z,1022.15
2017-07-11T00:14:40.783Z,1022.18
2017-07-11T00:15:40.779Z,1022.15
2017-07-11T00:16:40.777Z,1022.17
2017-07-11T00:17:40.771Z,1022.12
2017-07-11T00:18:40.770Z,1022.17
2017-07-11T00:19:40.769Z,1022.19
2017-07-11T00:20:40.762Z,1022.2
2017-07-11T00:21:40.760Z,1022.23
2017-07-11T00:22:40.761Z,1022.24
2017-07-11T00:23:40.756Z,1022.32
2017-07-11T00:24:40.754Z,1022.28
2017-07-11T00:25:40.750Z,1022.21
2017-07-11T00:26:40.747Z,1022.33
2017-07-11T00:27:40.740Z,1022.36
2017-07-11T00:28:40.739Z,1022.36
2017-07-11T00:29:40.740Z,1022.33
2017-07-11T00:30:40.739Z,1022.33
2017-07-11T00:31:40.732Z,1022.37
2017-07-11T00:32:40.730Z,1022.34
2017-07-11T00:33:40.727Z,1022.34
2017-07-11T00:34:40.721Z,1022.37
2017-07-11T00:35:40.720Z,1022.35
2017-07-11T00:36:40.716Z,1022.38
2017-07-11T00:37:40.717Z,1022.39
2017-07-11T00:38:40.709Z,1022.34
2017-07-11T00:39:40.705Z,1022.32
2017-07-11T00:40:40.704Z,1022.32
2017-07-11T00:41:40.699Z,1022.4
2017-07-11T00:42:40.699Z,1022.49
2017-07-11T00:43:40.697Z,1022.53
2017-07-11T00:44:40.696Z,1022.59
2017-07-11T00:45:40.690Z,1022.62
2017-07-11T00:46:40.688Z,1022.68
2017-07-11T00:47:40.683Z,1022.65
2017-07-11T00:48:40.686Z,1022.68
2017-07-11T00:49:40.683Z,1022.72
2017-07-11T00:50:40.671Z,1022.76
2017-07-11T00:51:40.673Z,1022.72
2017-07-11T00:52:40.669Z,1022.75
2017-07-11T00:53:40.667Z,1022.72
2017-07-11T00:54:40.662Z,1022.73
2017-07-11T00:55:40.657Z,1022.7
2017-07-11T00:56:40.652Z,1022.8
2017-07-11T00:57:40.650Z,1022.84
2017-07-11T00:58:40.652Z,1022.83
2017-07-11T00:59:40.647Z,1022.81
2017-07-11T01:00:40.641Z,1022.81
2017-07-11T01:01:40.641Z,1022.79
2017-07-11T01:02:40.637Z,1022.76
2017-07-11T01:03:40.631Z,1022.75
2017-07-11T01:04:40.699Z,1022.71
2017-07-11T01:05:40.627Z,1022.7
2017-07-11T01:06:40.625Z,1022.7
2017-07-11T01:07:40.621Z,1022.69
2017-07-11T01:08:40.617Z,1022.71
2017-07-11T01:09:40.612Z,1022.7
2017-07-11T01:10:40.608Z,1022.7
2017-07-11T01:11:40.608Z,1022.68
2017-07-11T01:12:40.604Z,1022.69
2017-07-11T01:13:40.601Z,1022.66
2017-07-11T01:14:40.598Z,1022.74
2017-07-11T01:15:40.592Z,1022.72
2017-07-11T01:16:40.589Z,1022.71
2017-07-11T01:17:40.585Z,1022.72
2017-07-11T01:18:40.583Z,1022.73
2017-07-11T01:19:40.577Z,1022.7
2017-07-11T01:20:40.580Z,1022.74
2017-07-11T01:21:40.574Z,1022.71
2017-07-11T01:22:40.568Z,1022.71
2017-07-11T01:23:40.567Z,1022.66
2017-07-11T01:24:40.565Z,1022.69
2017-07-11T01:25:40.559Z,1022.68
2017-07-11T01:26:40.556Z,1022.61
2017-07-11T01:27:40.552Z,1022.64
2017-07-11T01:28:40.549Z,1022.66
2017-07-11T01:29:40.547Z,1022.69
2017-07-11T01:30:40.543Z,1022.66
2017-07-11T01:31:40.542Z,1022.69
2017-07-11T01:32:40.537Z,1022.71
2017-07-11T01:33:40.532Z,1022.67
2017-07-11T01:34:40.527Z,1022.63
2017-07-11T01:35:40.526Z,1022.64
2017-07-11T01:36:40.520Z,1022.58
2017-07-11T01:37:40.519Z,1022.61
2017-07-11T01:38:40.517Z,1022.62
2017-07-11T01:39:40.513Z,1022.56
2017-07-11T01:40:40.508Z,1022.56
2017-07-11T01:41:40.505Z,1022.57
2017-07-11T01:42:40.502Z,1022.6
2017-07-11T01:43:40.497Z,1022.62
2017-07-11T01:44:40.495Z,1022.64
2017-07-11T01:45:40.489Z,1022.64
2017-07-11T01:46:40.491Z,1022.6
2017-07-11T01:47:40.485Z,1022.6
2017-07-11T01:48:40.482Z,1022.6
2017-07-11T01:49:40.481Z,1022.66
2017-07-11T01:50:40.470Z,1022.63
2017-07-11T01:51:40.472Z,1022.61
2017-07-11T01:52:40.466Z,1022.71
2017-07-11T01:53:40.465Z,1022.78
2017-07-11T01:54:40.460Z,1022.78
2017-07-11T01:55:40.456Z,1022.84
2017-07-11T01:56:40.453Z,1022.87
2017-07-11T01:57:40.451Z,1022.89
2017-07-11T01:58:40.449Z,1022.88
2017-07-11T01:59:40.444Z,1022.94
2017-07-11T02:00:40.438Z,1022.92
2017-07-11T02:01:40.434Z,1022.98
2017-07-11T02:02:40.433Z,1022.92
2017-07-11T02:03:40.426Z,1022.96
2017-07-11T02:04:40.425Z,1022.95
2017-07-11T02:05:40.424Z,1022.92
2017-07-11T02:06:40.419Z,1022.91
2017-07-11T02:07:40.418Z,1022.87
2017-07-11T02:08:40.409Z,1022.96
2017-07-11T02:09:40.411Z,1022.96
2017-07-11T02:10:40.401Z,1022.97
2017-07-11T02:11:40.398Z,1023
2017-07-11T02:12:40.398Z,1023.03
2017-07-11T02:13:40.392Z,1023
2017-07-11T02:14:40.393Z,1022.99
2017-07-11T02:15:40.388Z,1023
2017-07-11T02:16:40.385Z,1022.99
2017-07-11T02:17:40.383Z,1023.03
2017-07-11T02:18:40.374Z,1023.04
2017-07-11T02:19:40.374Z,1023
2017-07-11T02:20:40.369Z,1023.02
2017-07-11T02:21:40.368Z,1022.96
2017-07-11T02:22:40.358Z,1022.96
2017-07-11T02:23:40.360Z,1022.96
2017-07-11T02:24:40.353Z,1022.95
2017-07-11T02:25:40.352Z,1022.97
2017-07-11T02:26:40.346Z,1022.93
2017-07-11T02:27:40.349Z,1022.98
2017-07-11T02:28:40.341Z,1022.97
2017-07-11T02:29:40.338Z,1023
2017-07-11T02:30:40.331Z,1022.97
2017-07-11T02:31:40.330Z,1023.02
2017-07-11T02:32:40.327Z,1023.01
2017-07-11T02:33:40.324Z,1023.06
2017-07-11T02:34:40.321Z,1023.04
2017-07-11T02:35:40.318Z,1023.09
2017-07-11T02:36:40.311Z,1023.08
2017-07-11T02:37:40.310Z,1023.1
2017-07-11T02:38:40.302Z,1023.06
2017-07-11T02:39:40.300Z,1023.01
2017-07-11T02:40:40.295Z,1023.03
2017-07-11T02:41:40.295Z,1023.07
2017-07-11T02:42:40.291Z,1023.06
2017-07-11T02:43:40.286Z,1023.07
2017-07-11T02:44:40.283Z,1023.1
2017-07-11T02:45:40.282Z,1023.11
2017-07-11T02:46:40.278Z,1023.1
2017-07-11T02:47:40.273Z,1023.14
2017-07-11T02:48:40.267Z,1023.22
2017-07-11T02:49:40.264Z,1023.21
2017-07-11T02:50:40.263Z,1023.22
2017-07-11T02:51:40.259Z,1023.26
2017-07-11T02:52:40.256Z,1023.29
2017-07-11T02:53:40.250Z,1023.31
2017-07-11T02:54:40.248Z,1023.3
2017-07-11T02:55:40.245Z,1023.28
2017-07-11T02:56:40.239Z,1023.28
2017-07-11T02:57:40.239Z,1023.3
2017-07-11T02:58:40.233Z,1023.28
2017-07-11T02:59:40.233Z,1023.34
2017-07-11T03:00:40.224Z,1023.38
2017-07-11T03:01:40.223Z,1023.35
2017-07-11T03:02:40.232Z,1023.39
2017-07-11T03:03:40.217Z,1023.42
2017-07-11T03:04:40.212Z,1023.47
2017-07-11T03:05:40.208Z,1023.5
2017-07-11T03:06:40.204Z,1023.52
2017-07-11T03:07:40.199Z,1023.53
2017-07-11T03:08:40.200Z,1023.51
2017-07-11T03:09:40.195Z,1023.56
2017-07-11T03:10:40.190Z,1023.52
2017-07-11T03:11:40.184Z,1023.58
2017-07-11T03:12:40.184Z,1023.62
2017-07-11T03:13:40.181Z,1023.63
2017-07-11T03:14:40.177Z,1023.6
2017-07-11T03:15:40.174Z,1023.58
2017-07-11T03:16:40.169Z,1023.57
2017-07-11T03:17:40.166Z,1023.59
2017-07-11T03:18:40.162Z,1023.58
2017-07-11T03:19:40.157Z,1023.67
2017-07-11T03:20:40.155Z,1023.65
2017-07-11T03:21:40.150Z,1023.68
2017-07-11T03:22:40.150Z,1023.66
2017-07-11T03:23:40.145Z,1023.69
2017-07-11T03:24:40.144Z,1023.73
2017-07-11T03:25:40.135Z,1023.75
2017-07-11T03:26:40.134Z,1023.73
2017-07-11T03:27:40.130Z,1023.77
2017-07-11T03:28:40.126Z,1023.79
2017-07-11T03:29:40.120Z,1023.83
2017-07-11T03:30:40.121Z,1023.86
2017-07-11T03:31:40.115Z,1023.81
2017-07-11T03:32:40.117Z,1023.79
2017-07-11T03:33:40.105Z,1023.78
2017-07-11T03:34:40.102Z,1023.78
2017-07-11T03:35:40.103Z,1023.77
2017-07-11T03:36:40.098Z,1023.76
2017-07-11T03:37:40.094Z,1023.77
2017-07-11T03:38:40.089Z,1023.78
2017-07-11T03:39:40.085Z,1023.86
2017-07-11T03:40:40.080Z,1023.86
2017-07-11T03:41:40.080Z,1023.85
2017-07-11T03:42:40.074Z,1023.9
2017-07-11T03:43:40.074Z,1023.9
2017-07-11T03:44:40.073Z,1023.87
2017-07-11T03:45:40.067Z,1023.88
2017-07-11T03:46:40.057Z,1023.85
2017-07-11T03:47:40.058Z,1023.85
2017-07-11T03:48:40.052Z,1023.88
2017-07-11T03:49:40.049Z,1023.84
2017-07-11T03:50:40.044Z,1023.82
2017-07-11T03:51:40.046Z,1023.82
2017-07-11T03:52:40.053Z,1023.84
2017-07-11T03:53:40.036Z,1023.84
2017-07-11T03:54:40.029Z,1023.82
2017-07-11T03:55:40.029Z,1023.8
2017-07-11T03:56:40.021Z,1023.78
2017-07-11T03:57:40.023Z,1023.78
2017-07-11T03:58:40.015Z,1023.77
2017-07-11T03:59:40.017Z,1023.81
2017-07-11T04:00:40.009Z,1023.81
2017-07-11T04:01:40.004Z,1023.83
2017-07-11T04:02:40.007Z,1023.84
2017-07-11T04:03:40.002Z,1023.87
2017-07-11T04:04:39.999Z,1023.85
2017-07-11T04:05:39.992Z,1023.86
2017-07-11T04:06:39.988Z,1023.88
2017-07-11T04:07:39.985Z,1023.9
2017-07-11T04:08:39.984Z,1023.87
2017-07-11T04:09:39.980Z,1023.88
2017-07-11T04:10:39.973Z,1023.86
2017-07-11T04:11:39.973Z,1023.76
2017-07-11T04:12:39.971Z,1023.7
2017-07-11T04:13:39.964Z,1023.69
2017-07-11T04:14:39.963Z,1023.69
2017-07-11T04:15:39.956Z,1023.68
2017-07-11T04:16:39.955Z,1023.72
2017-07-11T04:17:39.949Z,1023.72
2017-07-11T04:18:39.952Z,1023.69
2017-07-11T04:19:39.947Z,1023.67
2017-07-11T04:20:39.946Z,1023.63
2017-07-11T04:21:39.937Z,1023.63
2017-07-11T04:22:39.935Z,1023.56
2017-07-11T04:23:39.934Z,1023.57
2017-07-11T04:24:39.930Z,1023.52
2017-07-11T04:25:39.929Z,1023.5
2017-07-11T04:26:39.922Z,1023.48
2017-07-11T04:27:39.922Z,1023.52
2017-07-11T04:28:39.919Z,1023.48
2017-07-11T04:29:39.913Z,1023.43
2017-07-11T04:30:39.909Z,1023.39
2017-07-11T04:31:39.909Z,1023.4
2017-07-11T04:32:39.901Z,1023.35
2017-07-11T04:33:39.904Z,1023.26
2017-07-11T04:34:39.898Z,1023.23
2017-07-11T04:35:39.895Z,1023.14
2017-07-11T04:36:39.892Z,1023.07
2017-07-11T04:37:39.940Z,1023.09
2017-07-11T04:38:39.888Z,1023
2017-07-11T04:39:39.884Z,1022.89
2017-07-11T04:40:39.881Z,1022.85
2017-07-11T04:41:39.881Z,1022.82
2017-07-11T04:42:39.875Z,1022.75
2017-07-11T04:43:39.871Z,1022.72
2017-07-11T04:44:39.867Z,1022.71
2017-07-11T04:45:39.867Z,1022.62
2017-07-11T04:46:39.863Z,1022.56
2017-07-11T04:47:39.865Z,1022.46
2017-07-11T04:48:39.858Z,1022.39
2017-07-11T04:49:39.861Z,1022.33
2017-07-11T04:50:39.854Z,1022.22
2017-07-11T04:51:39.853Z,1022.12
2017-07-11T04:52:39.853Z,1022.05
2017-07-11T04:53:39.852Z,1022.01
2017-07-11T04:54:39.847Z,1021.93
2017-07-11T04:55:39.843Z,1021.86
2017-07-11T04:56:39.844Z,1021.81
2017-07-11T04:57:39.840Z,1021.71
2017-07-11T04:58:39.845Z,1021.66
2017-07-11T04:59:39.840Z,1021.59
2017-07-11T05:00:39.843Z,1021.54
2017-07-11T05:01:39.835Z,1021.38
2017-07-11T05:02:39.836Z,1021.29
2017-07-11T05:03:39.833Z,1021.4
2017-07-11T05:04:39.833Z,1021.46
2017-07-11T05:05:39.836Z,1021.47
2017-07-11T05:06:39.831Z,1021.48
2017-07-11T05:07:39.834Z,1021.46
2017-07-11T05:08:40.130Z,1021.4
2017-07-11T05:09:39.836Z,1021.34
2017-07-11T05:10:39.831Z,1021.32
2017-07-11T05:11:39.828Z,1021.38
2017-07-11T05:12:39.831Z,1021.54
2017-07-11T05:13:39.827Z,1021.61
2017-07-11T05:14:39.834Z,1021.61
2017-07-11T05:15:39.829Z,1021.6
2017-07-11T05:16:39.829Z,1021.61
2017-07-11T05:17:39.829Z,1021.57
2017-07-11T05:18:39.831Z,1021.54
2017-07-11T05:19:39.830Z,1021.52
2017-07-11T05:20:39.830Z,1021.5
2017-07-11T05:21:39.830Z,1021.51
2017-07-11T05:22:39.828Z,1021.56
2017-07-11T05:23:39.828Z,1021.58
2017-07-11T05:24:39.830Z,1021.62
2017-07-11T05:25:39.830Z,1021.54
2017-07-11T05:26:39.830Z,1021.55
2017-07-11T05:27:39.830Z,1021.59
2017-07-11T05:28:39.830Z,1021.66
2017-07-11T05:29:39.830Z,1021.7
2017-07-11T05:30:39.830Z,1021.68
2017-07-11T05:31:39.826Z,1021.63
2017-07-11T05:32:39.830Z,1021.65
2017-07-11T05:33:39.829Z,1021.6
2017-07-11T05:34:39.830Z,1021.6
2017-07-11T05:35:39.830Z,1021.59
2017-07-11T05:36:39.830Z,1021.59
2017-07-11T05:37:39.869Z,1021.62
2017-07-11T05:38:39.830Z,1021.65
2017-07-11T05:39:39.829Z,1021.71
2017-07-11T05:40:39.831Z,1021.7
2017-07-11T05:41:39.826Z,1021.75
2017-07-11T05:42:39.828Z,1021.81
2017-07-11T05:43:39.830Z,1021.87
2017-07-11T05:44:39.830Z,1021.9
2017-07-11T05:45:39.831Z,1021.93
2017-07-11T05:46:39.826Z,1021.94
2017-07-11T05:47:39.830Z,1021.92
2017-07-11T05:48:39.828Z,1021.93
2017-07-11T05:49:39.830Z,1021.95
2017-07-11T05:50:39.827Z,1021.97
2017-07-11T05:51:39.832Z,1022.05
2017-07-11T05:52:39.825Z,1022.11
2017-07-11T05:53:39.828Z,1022.09
2017-07-11T05:54:39.824Z,1022.08
2017-07-11T05:55:39.827Z,1022.05
2017-07-11T05:56:39.828Z,1022.15
2017-07-11T05:57:39.826Z,1022.13
2017-07-11T05:58:39.825Z,1022.2
2017-07-11T05:59:39.830Z,1022.17
2017-07-11T06:00:39.827Z,1022.18
2017-07-11T06:01:39.826Z,1022.19
2017-07-11T06:02:39.822Z,1022.21
2017-07-11T06:03:39.823Z,1022.17
2017-07-11T06:04:39.821Z,1022.14
2017-07-11T06:05:39.823Z,1022.13
2017-07-11T06:06:39.824Z,1022.18
2017-07-11T06:07:39.823Z,1022.16
2017-07-11T06:08:39.823Z,1022.08
2017-07-11T06:09:39.824Z,1022.14
2017-07-11T06:10:39.823Z,1022.13
2017-07-11T06:11:39.819Z,1022.1
2017-07-11T06:12:39.819Z,1022.05
2017-07-11T06:13:39.824Z,1022.02
2017-07-11T06:14:39.821Z,1021.97
2017-07-11T06:15:39.819Z,1021.87
2017-07-11T06:16:39.819Z,1021.83
2017-07-11T06:17:39.817Z,1021.83
2017-07-11T06:18:39.821Z,1021.81
2017-07-11T06:19:39.819Z,1021.79
2017-07-11T06:20:39.820Z,1021.76
2017-07-11T06:21:39.820Z,1021.75
2017-07-11T06:22:39.814Z,1021.75
2017-07-11T06:23:39.819Z,1021.76
2017-07-11T06:24:39.818Z,1021.76
2017-07-11T06:25:39.818Z,1021.71
2017-07-11T06:26:39.818Z,1021.64
2017-07-11T06:27:39.818Z,1021.6
2017-07-11T06:28:39.819Z,1021.58
2017-07-11T06:29:39.820Z,1021.48
2017-07-11T06:30:39.818Z,1021.48
2017-07-11T06:31:39.817Z,1021.4
2017-07-11T06:32:39.818Z,1021.41
2017-07-11T06:33:39.816Z,1021.35
2017-07-11T06:34:39.818Z,1021.27
2017-07-11T06:35:39.818Z,1021.21
2017-07-11T06:36:39.820Z,1021.14
2017-07-11T06:37:39.818Z,1021.13
2017-07-11T06:38:39.821Z,1021.12
2017-07-11T06:39:39.823Z,1021.13
2017-07-11T06:40:39.822Z,1021.14
2017-07-11T06:41:39.822Z,1021.08
2017-07-11T06:42:39.823Z,1020.99
2017-07-11T06:43:39.824Z,1020.92
2017-07-11T06:44:39.824Z,1020.81
2017-07-11T06:45:39.822Z,1020.64
2017-07-11T06:46:39.827Z,1020.59
2017-07-11T06:47:39.824Z,1020.52
2017-07-11T06:48:39.829Z,1020.46
2017-07-11T06:49:39.828Z,1020.37
2017-07-11T06:50:39.832Z,1020.27
2017-07-11T06:51:39.832Z,1020.05
2017-07-11T06:52:39.834Z,1019.97
2017-07-11T06:53:39.833Z,1019.8
2017-07-11T06:54:39.840Z,1019.73
2017-07-11T06:55:39.840Z,1019.65
2017-07-11T06:56:39.845Z,1019.53
2017-07-11T06:57:39.846Z,1019.36
2017-07-11T06:58:39.848Z,1019.25
2017-07-11T06:59:39.851Z,1019.18
2017-07-11T07:00:39.855Z,1019.06
2017-07-11T07:01:39.857Z,1019.09
2017-07-11T07:02:39.858Z,1019.08
2017-07-11T07:03:39.863Z,1019.05
2017-07-11T07:04:39.867Z,1019.01
2017-07-11T07:05:39.869Z,1018.9
2017-07-11T07:06:39.874Z,1018.78
2017-07-11T07:07:39.879Z,1018.63
2017-07-11T07:08:39.883Z,1018.57
2017-07-11T07:09:39.887Z,1018.51
2017-07-11T07:10:39.887Z,1018.47
2017-07-11T07:11:39.896Z,1018.43
2017-07-11T07:12:39.902Z,1018.31
2017-07-11T07:13:39.904Z,1018.24
2017-07-11T07:14:39.911Z,1018.15
2017-07-11T07:15:39.916Z,1018
2017-07-11T07:16:39.923Z,1018.06
2017-07-11T07:17:39.924Z,1017.9
2017-07-11T07:18:39.930Z,1017.76
2017-07-11T07:19:39.942Z,1017.67
2017-07-11T07:20:39.945Z,1017.7
2017-07-11T07:21:39.952Z,1017.82
2017-07-11T07:22:39.955Z,1017.6
2017-07-11T07:23:39.967Z,1017.59
2017-07-11T07:24:39.970Z,1017.77
2017-07-11T07:25:39.975Z,1017.85
2017-07-11T07:26:39.986Z,1017.86
2017-07-11T07:27:39.992Z,1017.85
2017-07-11T07:28:39.999Z,1017.81
2017-07-11T07:29:40.003Z,1017.8
2017-07-11T07:30:40.018Z,1017.78
2017-07-11T07:31:40.019Z,1017.86
2017-07-11T07:32:40.029Z,1017.94
2017-07-11T07:33:40.033Z,1017.9
2017-07-11T07:34:40.041Z,1017.76
2017-07-11T07:35:40.050Z,1018.08
2017-07-11T07:36:40.061Z,1017.88
2017-07-11T07:37:40.063Z,1017.63
2017-07-11T07:38:40.073Z,1017.6
2017-07-11T07:39:40.081Z,1017.38
2017-07-11T07:40:40.090Z,1017.13
2017-07-11T07:41:40.094Z,1016.85
2017-07-11T07:42:40.107Z,1016.46
2017-07-11T07:43:40.111Z,1015.91
2017-07-11T07:44:40.124Z,1016.61
2017-07-11T07:45:40.130Z,1016.17
2017-07-11T07:46:40.141Z,1016.06
2017-07-11T07:47:40.149Z,1015.9
2017-07-11T07:48:40.159Z,1015.59
2017-07-11T07:49:40.169Z,1015.5
2017-07-11T07:50:40.176Z,1015.17
2017-07-11T07:51:40.192Z,1014.98
2017-07-11T07:52:40.200Z,1014.81
2017-07-11T07:53:40.212Z,1014.24
2017-07-11T07:54:40.225Z,1015.62
2017-07-11T07:55:40.240Z,1015.55
2017-07-11T07:56:40.249Z,1015.43
2017-07-11T07:57:40.263Z,1015.61
2017-07-11T07:58:40.273Z,1015.15
2017-07-11T07:59:40.285Z,1014.5
2017-07-11T08:00:40.299Z,1014.72
2017-07-11T08:01:40.313Z,1014.92
2017-07-11T08:02:40.327Z,1014.82
2017-07-11T08:03:40.343Z,1014.8
2017-07-11T08:04:40.357Z,1014.87
2017-07-11T08:05:40.370Z,1014.81
2017-07-11T08:06:40.383Z,1015.01
2017-07-11T08:07:40.398Z,1015.1
2017-07-11T08:08:40.414Z,1015.23
2017-07-11T08:09:40.429Z,1015.28
2017-07-11T08:10:40.446Z,1015.12
2017-07-11T08:11:40.460Z,1014.91
2017-07-11T08:12:40.475Z,1014.9
2017-07-11T08:13:40.494Z,1014.93
2017-07-11T08:14:40.508Z,1014.94
2017-07-11T08:15:40.524Z,1014.92
2017-07-11T08:16:40.542Z,1014.78
2017-07-11T08:17:40.558Z,1014.63
2017-07-11T08:18:40.571Z,1014.59
2017-07-11T08:19:40.588Z,1014.42
2017-07-11T08:20:40.608Z,1014.33
2017-07-11T08:21:40.627Z,1014.32
2017-07-11T08:22:40.642Z,1014.26
2017-07-11T08:23:40.658Z,1014.26
2017-07-11T08:24:40.678Z,1014.25
2017-07-11T08:25:40.696Z,1014.25
2017-07-11T08:26:40.713Z,1014.6
2017-07-11T08:27:40.783Z,1014.37
2017-07-11T08:28:40.747Z,1014.36
2017-07-11T08:29:40.765Z,1014.5
2017-07-11T08:30:40.786Z,1014.79
2017-07-11T08:31:40.801Z,1015.08
2017-07-11T08:32:40.819Z,1015.27
2017-07-11T08:33:40.836Z,1015.31
2017-07-11T08:34:40.849Z,1015.39
2017-07-11T08:35:40.870Z,1015.27
2017-07-11T08:36:40.887Z,1015.3
2017-07-11T08:37:40.908Z,1015.28
2017-07-11T08:38:40.924Z,1015.25
2017-07-11T08:39:41.188Z,1015.19
2017-07-11T08:40:40.953Z,1015.3
2017-07-11T08:41:40.969Z,1015.23
2017-07-11T08:42:40.990Z,1015.21
2017-07-11T08:43:41.005Z,1015.11
2017-07-11T08:44:41.026Z,1014.99
2017-07-11T08:45:41.093Z,1014.99
2017-07-11T08:46:41.057Z,1015.29
2017-07-11T08:47:41.072Z,1015.6
2017-07-11T08:48:41.092Z,1015.9
2017-07-11T08:50:41.121Z,1016.53
2017-07-11T08:51:41.140Z,1016.74
2017-07-11T08:54:41.188Z,1017.99
2017-07-11T08:55:41.199Z,1018.1
2017-07-11T08:56:41.219Z,1018.05
2017-07-11T08:57:41.234Z,1018.34
2017-07-11T08:58:41.246Z,1018.75
2017-07-11T08:59:41.257Z,1018.95
2017-07-11T09:00:41.271Z,1019.11
2017-07-11T09:01:41.290Z,1019.19
2017-07-11T09:02:41.300Z,1019.29
2017-07-11T09:03:41.313Z,1019.43
2017-07-11T09:04:41.337Z,1019.64
2017-07-11T09:05:41.335Z,1019.74
2017-07-11T09:06:41.352Z,1019.9
2017-07-11T09:07:41.362Z,1020
2017-07-11T09:08:41.374Z,1020.1
2017-07-11T09:09:41.384Z,1020.1
2017-07-11T09:10:41.400Z,1020.16
2017-07-11T09:11:41.410Z,1020.23
2017-07-11T09:12:41.422Z,1020.22
2017-07-11T09:13:41.429Z,1020.24
2017-07-11T09:14:41.441Z,1020.29
2017-07-11T09:15:41.447Z,1020.3
2017-07-11T09:16:41.461Z,1020.3
2017-07-11T09:17:41.472Z,1020.32
2017-07-11T09:18:41.483Z,1020.28
2017-07-11T09:19:41.490Z,1020.32
2017-07-11T09:20:41.506Z,1020.38
2017-07-11T09:21:41.509Z,1020.42
2017-07-11T09:22:41.523Z,1020.45
2017-07-11T09:23:41.534Z,1020.4
2017-07-11T09:24:41.542Z,1020.41
2017-07-11T09:25:41.552Z,1020.39
2017-07-11T09:26:41.562Z,1020.41
2017-07-11T09:27:41.575Z,1020.39
2017-07-11T09:28:41.581Z,1020.41
2017-07-11T09:29:41.588Z,1020.4
2017-07-11T09:30:41.601Z,1020.41
2017-07-11T09:31:41.609Z,1020.54
2017-07-11T09:32:41.618Z,1020.59
2017-07-11T09:33:41.629Z,1020.67
2017-07-11T09:34:41.639Z,1020.69
2017-07-11T09:35:41.644Z,1020.73
2017-07-11T09:36:41.657Z,1020.77
2017-07-11T09:37:41.663Z,1020.72
2017-07-11T09:38:41.673Z,1020.72
2017-07-11T09:39:41.682Z,1020.67
2017-07-11T09:40:41.697Z,1020.66
2017-07-11T09:41:41.704Z,1020.65
2017-07-11T09:42:41.710Z,1020.64
2017-07-11T09:43:41.721Z,1020.64
2017-07-11T09:44:41.730Z,1020.69
2017-07-11T09:45:41.744Z,1020.74
2017-07-11T09:46:41.747Z,1020.83
2017-07-11T09:47:41.758Z,1020.88
2017-07-11T09:48:41.769Z,1020.95
2017-07-11T09:49:41.773Z,1020.97
2017-07-11T09:50:41.782Z,1020.97
2017-07-11T09:51:41.789Z,1020.92
2017-07-11T09:52:41.802Z,1020.86
2017-07-11T09:53:41.810Z,1020.83
2017-07-11T09:54:41.819Z,1020.79
2017-07-11T09:55:41.824Z,1020.73
2017-07-11T09:56:41.838Z,1020.71
2017-07-11T09:57:41.843Z,1020.77
2017-07-11T09:58:41.849Z,1020.8
2017-07-11T09:59:41.861Z,1020.8
2017-07-11T10:00:41.871Z,1020.86
2017-07-11T10:01:41.879Z,1020.95
2017-07-11T10:02:41.886Z,1020.93
2017-07-11T10:03:41.894Z,1020.9
2017-07-11T10:04:41.902Z,1020.86
2017-07-11T10:05:41.912Z,1020.88
2017-07-11T10:06:41.921Z,1020.88
2017-07-11T10:07:41.929Z,1020.95
2017-07-11T10:08:41.937Z,1020.92
2017-07-11T10:09:41.944Z,1020.97
2017-07-11T10:10:41.952Z,1021.04
2017-07-11T10:12:41.971Z,1021.09
2017-07-11T10:13:41.977Z,1021.22
2017-07-11T10:14:41.986Z,1021.23
2017-07-11T10:15:41.997Z,1021.27
2017-07-11T10:16:41.999Z,1021.28
2017-07-11T10:17:42.011Z,1021.35
2017-07-11T10:18:42.016Z,1021.35
2017-07-11T10:19:42.025Z,1021.37
2017-07-11T10:20:42.033Z,1021.35
2017-07-11T10:21:42.040Z,1021.3
2017-07-11T10:22:42.048Z,1021.28
2017-07-11T10:23:42.057Z,1021.24
2017-07-11T10:24:42.067Z,1021.21
2017-07-11T10:25:42.075Z,1021.14
2017-07-11T10:26:42.080Z,1021.06
2017-07-11T10:27:42.088Z,1021.01
2017-07-11T10:28:42.096Z,1020.92
2017-07-11T10:29:42.104Z,1020.85
2017-07-11T10:30:42.111Z,1020.84
2017-07-11T10:31:42.114Z,1020.78
2017-07-11T10:32:42.127Z,1020.69
2017-07-11T10:33:42.133Z,1020.65
2017-07-11T10:34:42.141Z,1020.55
2017-07-11T10:35:42.149Z,1020.49
2017-07-11T10:36:42.157Z,1020.38
2017-07-11T10:37:42.171Z,1020.3
2017-07-11T10:38:42.175Z,1020.36
2017-07-11T10:39:42.177Z,1020.42
2017-07-11T10:40:42.190Z,1020.45
2017-07-11T10:41:42.196Z,1020.49
2017-07-11T10:42:42.205Z,1020.54
2017-07-11T10:43:42.210Z,1020.62
2017-07-11T10:44:42.222Z,1020.78
2017-07-11T10:45:42.229Z,1020.78
2017-07-11T10:46:42.240Z,1020.79
2017-07-11T10:47:42.242Z,1020.82
2017-07-11T10:48:42.252Z,1020.82
2017-07-11T10:49:42.261Z,1020.86
2017-07-11T10:50:42.271Z,1020.81
2017-07-11T10:51:42.279Z,1020.8
2017-07-11T10:52:42.287Z,1020.86
2017-07-11T10:53:42.293Z,1020.88
2017-07-11T10:54:42.301Z,1020.99
2017-07-11T10:55:42.311Z,1020.96
2017-07-11T10:56:42.321Z,1020.96
2017-07-11T10:57:42.329Z,1020.9
2017-07-11T10:58:42.337Z,1020.94
2017-07-11T10:59:42.339Z,1021.07
2017-07-11T11:00:42.351Z,1021.16
2017-07-11T11:01:42.355Z,1021.29
2017-07-11T11:02:42.369Z,1021.39
2017-07-11T11:03:42.374Z,1021.43
2017-07-11T11:04:42.382Z,1021.43
2017-07-11T11:05:42.394Z,1021.47
2017-07-11T11:06:42.395Z,1021.53
2017-07-11T11:07:42.404Z,1021.61
2017-07-11T11:08:42.414Z,1021.6
2017-07-11T11:09:42.419Z,1021.64
2017-07-11T11:10:42.424Z,1021.71
2017-07-11T11:11:42.433Z,1021.71
2017-07-11T11:12:42.744Z,1021.69
2017-07-11T11:13:42.451Z,1021.73
2017-07-11T11:14:42.458Z,1021.73
2017-07-11T11:15:42.462Z,1021.71
2017-07-11T11:16:42.473Z,1021.7
2017-07-11T11:17:42.482Z,1021.77
2017-07-11T11:18:42.488Z,1021.75
2017-07-11T11:19:42.494Z,1021.79
2017-07-11T11:20:42.503Z,1021.82
2017-07-11T11:21:42.508Z,1021.92
2017-07-11T11:22:42.515Z,1021.95
2017-07-11T11:23:42.524Z,1022.01
2017-07-11T11:24:42.586Z,1022.04
2017-07-11T11:25:42.538Z,1022.1
2017-07-11T11:26:42.544Z,1022.2
2017-07-11T11:27:42.552Z,1022.26
2017-07-11T11:28:42.554Z,1022.32
2017-07-11T11:29:42.564Z,1022.31
2017-07-11T11:30:42.572Z,1022.24
2017-07-11T11:31:42.576Z,1022.26
2017-07-11T11:32:42.587Z,1022.15
2017-07-11T11:33:42.592Z,1022.06
2017-07-11T11:34:42.598Z,1022.03
2017-07-11T11:35:42.604Z,1022.01
2017-07-11T11:36:42.611Z,1022.02
2017-07-11T11:37:42.615Z,1022.03
2017-07-11T11:38:42.624Z,1022.04
2017-07-11T11:39:42.626Z,1021.98
2017-07-11T11:40:42.634Z,1021.89
2017-07-11T11:41:42.641Z,1021.78
2017-07-11T11:42:42.650Z,1021.76
2017-07-11T11:43:42.657Z,1021.77
2017-07-11T11:44:42.662Z,1021.73
2017-07-11T11:45:42.669Z,1021.63
2017-07-11T11:46:42.672Z,1021.58
2017-07-11T11:47:42.682Z,1021.55
2017-07-11T11:48:42.685Z,1021.53
2017-07-11T11:49:42.699Z,1021.62
2017-07-11T11:50:42.700Z,1021.64
2017-07-11T11:51:42.710Z,1021.64
2017-07-11T11:52:42.711Z,1021.65
2017-07-11T11:53:42.723Z,1021.59
2017-07-11T11:54:42.726Z,1021.62
2017-07-11T11:55:42.731Z,1021.63
2017-07-11T11:56:42.742Z,1021.67
2017-07-11T11:57:42.746Z,1021.65
2017-07-11T11:58:42.753Z,1021.65
2017-07-11T11:59:42.761Z,1021.72
2017-07-11T12:00:42.763Z,1021.78
2017-07-11T12:01:42.769Z,1021.82
2017-07-11T12:02:42.777Z,1021.85
2017-07-11T12:03:42.782Z,1021.86
2017-07-11T12:04:42.787Z,1021.86
2017-07-11T12:05:42.794Z,1021.88
2017-07-11T12:06:42.799Z,1021.83
2017-07-11T12:07:42.809Z,1021.84
2017-07-11T12:08:42.816Z,1021.84
2017-07-11T12:09:42.823Z,1021.83
2017-07-11T12:10:42.824Z,1021.84
2017-07-11T12:11:42.836Z,1021.86
2017-07-11T12:12:42.839Z,1021.83
2017-07-11T12:13:42.848Z,1021.83